createdAt,value
2019-03-04T00:00:53.171Z,11.90
2019-03-04T00:04:06.662Z,11.83
2019-03-04T00:07:20.156Z,11.90
2019-03-04T00:10:33.746Z,11.89
2019-03-04T00:13:47.343Z,11.88
2019-03-04T00:17:00.955Z,12.06
2019-03-04T00:20:14.542Z,12.08
2019-03-04T00:23:28.362Z,12.05
2019-03-04T00:26:42.128Z,12.14
2019-03-04T00:29:55.590Z,12.19
2019-03-04T00:33:09.365Z,12.27
2019-03-04T00:36:22.848Z,12.38
2019-03-04T00:39:36.322Z,12.40
2019-03-04T00:42:50.289Z,12.38
2019-03-04T00:46:04.564Z,12.47
2019-03-04T00:49:18.335Z,12.47
2019-03-04T00:52:32.106Z,12.50
2019-03-04T00:55:45.877Z,12.40
2019-03-04T00:58:59.354Z,12.52
2019-03-04T01:02:12.821Z,12.36
2019-03-04T01:05:26.288Z,12.32
2019-03-04T01:08:39.878Z,12.21
2019-03-04T01:11:53.694Z,12.29
2019-03-04T01:15:10.016Z,12.19
2019-03-04T01:18:23.594Z,12.25
2019-03-04T01:21:37.159Z,12.19
2019-03-04T01:24:50.637Z,12.13
2019-03-04T01:28:04.607Z,12.16
2019-03-04T01:31:18.179Z,12.17
2019-03-04T01:34:31.755Z,12.08
2019-03-04T01:37:45.422Z,11.96
2019-03-04T01:40:59.204Z,11.93
2019-03-04T01:44:12.660Z,11.85
2019-03-04T01:47:26.126Z,11.82
2019-03-04T01:50:39.644Z,11.80
2019-03-04T01:53:53.109Z,11.69
2019-03-04T01:57:06.864Z,11.66
2019-03-04T02:00:20.847Z,11.64
2019-03-04T02:03:34.419Z,11.65
2019-03-04T02:06:48.284Z,11.59
2019-03-04T02:10:02.222Z,11.55
2019-03-04T02:13:15.702Z,11.53
2019-03-04T02:16:29.493Z,11.54
2019-03-04T02:19:42.964Z,11.55
2019-03-04T02:22:56.541Z,11.38
2019-03-04T02:26:32.048Z,11.30
2019-03-04T02:29:45.524Z,11.34
2019-03-04T02:32:59.298Z,11.45
2019-03-04T02:36:13.111Z,11.41
2019-03-04T02:39:26.599Z,11.35
2019-03-04T02:42:40.067Z,11.44
2019-03-04T02:45:53.618Z,11.33
2019-03-04T02:49:07.088Z,11.20
2019-03-04T02:52:20.703Z,10.97
2019-03-04T02:55:34.466Z,10.91
2019-03-04T02:58:47.922Z,10.86
2019-03-04T03:02:01.517Z,10.77
2019-03-04T03:05:15.078Z,10.83
2019-03-04T03:08:28.559Z,10.96
2019-03-04T03:11:42.152Z,10.94
2019-03-04T03:14:55.643Z,11.02
2019-03-04T03:18:09.135Z,10.96
2019-03-04T03:21:22.982Z,10.85
2019-03-04T03:24:36.453Z,10.98
2019-03-04T03:27:50.034Z,10.99
2019-03-04T03:31:03.651Z,11.15
2019-03-04T03:34:17.378Z,11.26
2019-03-04T03:37:30.864Z,11.25
2019-03-04T03:40:44.311Z,11.28
2019-03-04T03:43:58.171Z,11.29
2019-03-04T03:47:11.754Z,11.28
2019-03-04T03:50:25.743Z,11.26
2019-03-04T03:53:39.359Z,11.19
2019-03-04T03:56:52.824Z,11.16
2019-03-04T04:00:10.959Z,11.15
2019-03-04T04:03:24.709Z,10.99
2019-03-04T04:06:38.515Z,10.93
2019-03-04T04:09:52.278Z,11.00
2019-03-04T04:13:05.853Z,10.98
2019-03-04T04:16:19.439Z,10.96
2019-03-04T04:19:32.924Z,10.99
2019-03-04T04:22:46.634Z,11.06
2019-03-04T04:26:00.127Z,11.04
2019-03-04T04:29:13.834Z,11.01
2019-03-04T04:32:27.544Z,11.10
2019-03-04T04:35:41.387Z,11.16
2019-03-04T04:38:55.152Z,11.19
2019-03-04T04:42:08.845Z,11.21
2019-03-04T04:45:22.420Z,11.26
2019-03-04T04:48:36.016Z,11.13
2019-03-04T04:51:49.504Z,11.10
2019-03-04T04:55:03.528Z,11.10
2019-03-04T04:58:17.250Z,11.12
2019-03-04T05:01:30.720Z,11.16
2019-03-04T05:04:44.208Z,11.06
2019-03-04T05:07:57.672Z,11.10
2019-03-04T05:11:11.348Z,11.15
2019-03-04T05:14:24.825Z,11.26
2019-03-04T05:17:39.933Z,11.26
2019-03-04T05:20:53.587Z,11.21
2019-03-04T05:24:07.264Z,11.23
2019-03-04T05:27:20.844Z,11.25
2019-03-04T05:30:34.313Z,11.20
2019-03-04T05:33:47.807Z,11.26
2019-03-04T05:37:01.285Z,11.30
2019-03-04T05:40:15.434Z,11.26
2019-03-04T05:43:29.131Z,11.27
2019-03-04T05:46:42.621Z,11.38
2019-03-04T05:49:56.381Z,11.46
2019-03-04T05:53:09.950Z,11.46
2019-03-04T05:56:23.434Z,11.36
2019-03-04T05:59:37.028Z,11.27
2019-03-04T06:02:50.870Z,11.34
2019-03-04T06:06:04.344Z,11.33
2019-03-04T06:09:18.063Z,11.27
2019-03-04T06:12:31.824Z,11.07
2019-03-04T06:15:45.586Z,10.73
2019-03-04T06:18:59.042Z,10.48
2019-03-04T06:22:12.511Z,10.36
2019-03-04T06:25:26.889Z,10.29
2019-03-04T06:28:40.943Z,10.15
2019-03-04T06:31:54.521Z,10.02
2019-03-04T06:35:08.774Z,10.02
2019-03-04T06:38:22.531Z,9.99
2019-03-04T06:41:36.078Z,10.01
2019-03-04T06:44:49.534Z,10.11
2019-03-04T06:48:03.492Z,10.16
2019-03-04T06:51:24.898Z,10.29
2019-03-04T06:55:23.636Z,10.37
2019-03-04T06:58:40.416Z,10.45
2019-03-04T07:01:57.645Z,10.49
2019-03-04T07:05:52.131Z,10.63
2019-03-04T07:09:15.396Z,10.64
2019-03-04T07:12:28.878Z,10.69
2019-03-04T07:15:42.715Z,10.78
2019-03-04T07:18:56.186Z,10.81
2019-03-04T07:22:11.103Z,10.87
2019-03-04T07:25:24.870Z,10.96
2019-03-04T07:28:38.356Z,11.00
2019-03-04T07:31:52.556Z,11.07
2019-03-04T07:35:06.839Z,11.13
2019-03-04T07:38:40.061Z,11.20
2019-03-04T07:41:58.065Z,11.30
2019-03-04T07:45:12.118Z,11.35
2019-03-04T07:48:25.606Z,11.43
2019-03-04T07:51:39.668Z,11.53
2019-03-04T07:54:53.634Z,11.53
2019-03-04T07:58:07.239Z,11.54
2019-03-04T08:01:20.813Z,11.56
2019-03-04T08:04:34.409Z,11.54
2019-03-04T08:07:49.403Z,11.56
2019-03-04T08:11:51.474Z,11.60
2019-03-04T08:15:07.103Z,11.48
2019-03-04T08:18:21.340Z,11.01
2019-03-04T08:21:35.055Z,10.31
2019-03-04T08:24:48.575Z,9.01
2019-03-04T08:28:03.307Z,8.10
2019-03-04T08:31:17.327Z,7.75
2019-03-04T08:34:31.553Z,7.62
2019-03-04T08:37:45.924Z,7.75
2019-03-04T08:40:59.460Z,8.00
2019-03-04T08:44:12.945Z,8.15
2019-03-04T08:47:26.651Z,8.32
2019-03-04T08:50:40.563Z,8.41
2019-03-04T08:53:54.137Z,8.43
2019-03-04T08:57:08.005Z,8.49
2019-03-04T09:00:24.358Z,8.72
2019-03-04T09:03:37.923Z,8.84
2019-03-04T09:06:51.741Z,8.99
2019-03-04T09:10:10.005Z,9.18
2019-03-04T09:13:23.804Z,9.29
2019-03-04T09:16:37.276Z,9.40
2019-03-04T09:19:50.751Z,9.39
2019-03-04T09:23:04.620Z,9.40
2019-03-04T09:26:18.136Z,9.46
2019-03-04T09:29:31.942Z,9.43
2019-03-04T09:32:45.522Z,9.42
2019-03-04T09:35:59.119Z,9.41
2019-03-04T09:39:14.483Z,9.40
2019-03-04T09:42:28.330Z,9.41
2019-03-04T09:45:42.009Z,9.39
2019-03-04T09:48:55.473Z,9.18
2019-03-04T09:52:09.075Z,8.91
2019-03-04T09:55:23.027Z,8.74
2019-03-04T09:58:36.488Z,8.92
2019-03-04T10:01:54.310Z,9.10
2019-03-04T10:05:47.095Z,9.22
2019-03-04T10:09:13.962Z,9.29
2019-03-04T10:12:59.496Z,9.81
2019-03-04T10:16:40.614Z,10.03
2019-03-04T10:20:51.451Z,10.25
2019-03-04T10:24:30.247Z,10.34
2019-03-04T10:28:32.022Z,10.40
2019-03-04T10:32:14.745Z,10.34
2019-03-04T10:35:56.580Z,10.32
2019-03-04T10:40:05.076Z,10.28
2019-03-04T10:43:46.690Z,10.28
2019-03-04T10:47:00.442Z,10.50
2019-03-04T10:50:13.989Z,10.90
2019-03-04T10:53:28.152Z,11.31
2019-03-04T10:56:42.428Z,11.81
2019-03-04T10:59:56.395Z,12.37
2019-03-04T11:03:10.257Z,12.27
2019-03-04T11:06:24.052Z,12.76
2019-03-04T11:09:37.963Z,12.93
2019-03-04T11:12:52.007Z,13.26
2019-03-04T11:16:05.620Z,13.30
2019-03-04T11:19:19.803Z,13.06
2019-03-04T11:22:33.646Z,13.27
2019-03-04T11:25:48.391Z,13.05
2019-03-04T11:29:02.481Z,12.80
2019-03-04T11:32:16.244Z,12.81
2019-03-04T11:35:30.075Z,12.60
2019-03-04T11:38:46.271Z,12.32
2019-03-04T11:41:59.859Z,12.03
2019-03-04T11:45:16.455Z,11.76
2019-03-04T11:48:29.999Z,11.99
2019-03-04T11:51:43.633Z,13.31
2019-03-04T11:54:57.105Z,13.49
2019-03-04T11:58:10.712Z,13.34
2019-03-04T12:01:33.996Z,14.17
2019-03-04T12:04:47.471Z,13.22
2019-03-04T12:08:01.347Z,11.99
2019-03-04T12:11:15.050Z,11.20
2019-03-04T12:14:28.617Z,10.57
2019-03-04T12:17:42.312Z,10.68
2019-03-04T12:20:56.115Z,10.59
2019-03-04T12:24:09.819Z,10.14
2019-03-04T12:27:23.693Z,9.72
2019-03-04T12:30:37.262Z,9.52
2019-03-04T12:33:50.730Z,9.47
2019-03-04T12:37:04.425Z,9.30
2019-03-04T12:40:18.637Z,9.05
2019-03-04T12:43:32.195Z,8.72
2019-03-04T12:46:45.982Z,8.33
2019-03-04T12:49:59.492Z,7.98
2019-03-04T12:53:13.278Z,8.05
2019-03-04T12:56:26.851Z,8.71
2019-03-04T12:59:41.184Z,9.32
2019-03-04T13:02:57.935Z,9.63
2019-03-04T13:06:11.373Z,9.76
2019-03-04T13:09:24.859Z,9.45
2019-03-04T13:12:38.514Z,9.24
2019-03-04T13:15:53.605Z,9.10
2019-03-04T13:19:07.194Z,8.93
2019-03-04T13:22:21.165Z,9.00
2019-03-04T13:25:34.748Z,8.79
2019-03-04T13:28:48.336Z,8.69
2019-03-04T13:32:02.039Z,8.58
2019-03-04T13:35:24.414Z,8.54
2019-03-04T13:38:33.306Z,8.54
2019-03-04T13:41:47.042Z,8.49
2019-03-04T13:45:00.554Z,8.47
2019-03-04T13:48:14.253Z,8.44
2019-03-04T13:51:28.009Z,8.35
2019-03-04T13:54:41.520Z,8.37
2019-03-04T13:57:55.550Z,8.36
2019-03-04T14:01:09.576Z,8.50
2019-03-04T14:04:23.340Z,8.48
2019-03-04T14:07:39.019Z,8.57
2019-03-04T14:10:54.030Z,9.18
2019-03-04T14:14:07.722Z,10.27
2019-03-04T14:17:21.845Z,10.28
2019-03-04T14:20:36.061Z,10.19
2019-03-04T14:23:49.613Z,9.76
2019-03-04T14:27:03.314Z,9.44
2019-03-04T14:30:17.038Z,9.18
2019-03-04T14:33:30.819Z,8.98
2019-03-04T14:36:44.387Z,8.84
2019-03-04T14:39:58.144Z,8.82
2019-03-04T14:43:11.719Z,8.91
2019-03-04T14:46:25.428Z,8.81
2019-03-04T14:49:44.752Z,8.26
2019-03-04T14:52:54.255Z,7.77
2019-03-04T14:56:07.753Z,7.48
2019-03-04T14:59:21.531Z,7.32
2019-03-04T15:02:35.363Z,7.20
2019-03-04T15:05:49.811Z,7.24
2019-03-04T15:09:05.192Z,7.36
2019-03-04T15:12:18.965Z,7.30
2019-03-04T15:15:32.660Z,7.14
2019-03-04T15:18:46.228Z,6.94
2019-03-04T15:22:00.138Z,6.70
2019-03-04T15:25:17.826Z,6.60
2019-03-04T15:28:31.679Z,6.55
2019-03-04T15:31:45.664Z,6.61
2019-03-04T15:34:59.433Z,6.50
2019-03-04T15:38:13.056Z,6.60
2019-03-04T15:41:26.563Z,6.57
2019-03-04T15:44:40.919Z,6.48
2019-03-04T15:47:54.503Z,6.36
2019-03-04T15:51:08.154Z,6.46
2019-03-04T15:54:22.047Z,6.67
2019-03-04T15:57:35.747Z,6.60
2019-03-04T16:00:50.786Z,6.46
2019-03-04T16:04:04.518Z,6.45
2019-03-04T16:07:18.123Z,6.29
2019-03-04T16:10:33.686Z,6.14
2019-03-04T16:13:52.982Z,6.14
2019-03-04T16:17:02.873Z,6.09
2019-03-04T16:20:16.865Z,6.09
2019-03-04T16:23:30.710Z,6.04
2019-03-04T16:26:45.003Z,5.98
2019-03-04T16:29:58.533Z,5.94
2019-03-04T16:33:12.594Z,5.84
2019-03-04T16:36:26.179Z,5.80
2019-03-04T16:39:40.403Z,5.89
2019-03-04T16:42:54.163Z,5.91
2019-03-04T16:46:09.014Z,6.04
2019-03-04T16:49:22.815Z,6.01
2019-03-04T16:52:36.773Z,5.97
2019-03-04T16:55:50.445Z,5.86
2019-03-04T16:59:04.463Z,5.76
2019-03-04T17:02:18.763Z,5.76
2019-03-04T17:05:32.851Z,5.68
2019-03-04T17:08:46.738Z,5.59
2019-03-04T17:12:00.475Z,5.61
2019-03-04T17:15:16.307Z,5.63
2019-03-04T17:18:29.900Z,5.68
2019-03-04T17:21:43.686Z,5.63
2019-03-04T17:24:57.356Z,5.63
2019-03-04T17:28:10.955Z,5.66
2019-03-04T17:31:24.923Z,5.49
2019-03-04T17:34:38.403Z,5.47
2019-03-04T17:37:52.192Z,5.54
2019-03-04T17:41:05.942Z,5.51
2019-03-04T17:44:23.244Z,5.54
2019-03-04T17:47:37.325Z,5.59
2019-03-04T17:50:51.180Z,5.62
2019-03-04T17:54:04.757Z,5.56
2019-03-04T17:57:18.336Z,5.46
2019-03-04T18:00:32.663Z,5.48
2019-03-04T18:03:46.149Z,5.44
2019-03-04T18:06:59.617Z,5.49
2019-03-04T18:10:13.639Z,5.57
2019-03-04T18:13:27.677Z,5.52
2019-03-04T18:16:41.248Z,5.62
2019-03-04T18:19:54.788Z,5.58
2019-03-04T18:23:08.622Z,5.42
2019-03-04T18:26:29.444Z,5.46
2019-03-04T18:30:09.409Z,5.45
2019-03-04T18:34:06.483Z,5.42
2019-03-04T18:37:52.115Z,5.43
2019-03-04T18:41:18.301Z,5.44
2019-03-04T18:44:48.008Z,5.54
2019-03-04T18:48:29.385Z,5.48
2019-03-04T18:51:42.976Z,5.36
2019-03-04T18:54:56.457Z,5.54
2019-03-04T18:58:10.104Z,5.44
2019-03-04T19:01:23.776Z,5.48
2019-03-04T19:04:37.716Z,5.52
2019-03-04T19:07:51.409Z,5.42
2019-03-04T19:11:05.100Z,5.34
2019-03-04T19:14:18.714Z,5.32
2019-03-04T19:17:33.777Z,5.36
2019-03-04T19:20:47.369Z,5.33
2019-03-04T19:24:00.940Z,5.33
2019-03-04T19:27:14.520Z,5.32
2019-03-04T19:30:27.998Z,5.38
2019-03-04T19:33:41.569Z,5.30
2019-03-04T19:36:55.047Z,5.29
2019-03-04T19:40:08.961Z,5.31
2019-03-04T19:43:32.486Z,5.19
2019-03-04T19:46:38.621Z,5.17
2019-03-04T19:49:52.459Z,5.32
2019-03-04T19:53:06.586Z,5.27
2019-03-04T19:56:20.273Z,5.31
2019-03-04T19:59:33.837Z,5.20
2019-03-04T20:02:48.171Z,5.24
2019-03-04T20:06:03.776Z,5.24
2019-03-04T20:09:17.447Z,5.31
2019-03-04T20:12:31.297Z,5.26
2019-03-04T20:15:45.059Z,5.25
2019-03-04T20:18:58.770Z,5.33
2019-03-04T20:22:12.474Z,5.36
2019-03-04T20:25:27.914Z,5.33
2019-03-04T20:28:41.518Z,5.40
2019-03-04T20:31:55.519Z,5.57
2019-03-04T20:35:09.740Z,5.53
2019-03-04T20:38:27.422Z,5.65
2019-03-04T20:41:41.008Z,5.73
2019-03-04T20:44:54.479Z,5.82
2019-03-04T20:48:08.065Z,5.92
2019-03-04T20:51:22.053Z,5.99
2019-03-04T20:54:35.896Z,6.04
2019-03-04T20:57:49.553Z,6.09
2019-03-04T21:01:11.494Z,6.13
2019-03-04T21:04:25.095Z,6.04
2019-03-04T21:07:39.128Z,6.13
2019-03-04T21:10:53.178Z,6.04
2019-03-04T21:14:06.752Z,6.08
2019-03-04T21:17:20.449Z,6.02
2019-03-04T21:20:34.229Z,6.03
2019-03-04T21:23:48.580Z,6.03
2019-03-04T21:27:02.445Z,6.16
2019-03-04T21:31:08.993Z,6.07
2019-03-04T21:35:17.088Z,5.86
2019-03-04T21:38:32.155Z,5.84
2019-03-04T21:41:53.555Z,5.60
2019-03-04T21:45:46.765Z,5.57
2019-03-04T21:49:04.432Z,5.48
2019-03-04T21:53:06.260Z,5.28
2019-03-04T21:56:50.467Z,5.26
2019-03-04T22:00:08.519Z,5.19
2019-03-04T22:03:28.359Z,5.25
2019-03-04T22:06:42.323Z,5.26
2019-03-04T22:09:55.789Z,5.38
2019-03-04T22:13:09.480Z,5.44
2019-03-04T22:16:23.166Z,5.35
2019-03-04T22:19:37.339Z,5.35
2019-03-04T22:22:51.424Z,5.42
2019-03-04T22:26:05.137Z,5.42
2019-03-04T22:29:18.899Z,5.43
2019-03-04T22:32:32.607Z,5.51
2019-03-04T22:35:46.258Z,5.54
2019-03-04T22:38:59.839Z,5.62
2019-03-04T22:42:13.314Z,5.57
2019-03-04T22:45:26.819Z,5.59
2019-03-04T22:48:40.380Z,5.55
2019-03-04T22:51:54.412Z,5.55
2019-03-04T22:55:10.802Z,5.38
2019-03-04T22:58:28.649Z,5.35
2019-03-04T23:01:58.141Z,5.33
2019-03-04T23:05:14.977Z,5.34
2019-03-04T23:08:28.537Z,5.37
2019-03-04T23:11:46.732Z,5.43
2019-03-04T23:15:00.489Z,5.52
2019-03-04T23:18:14.471Z,5.57
2019-03-04T23:21:28.674Z,5.55
2019-03-04T23:24:42.264Z,5.69
2019-03-04T23:27:56.128Z,5.81
2019-03-04T23:31:10.050Z,5.75
2019-03-04T23:34:23.524Z,5.72
2019-03-04T23:37:37.309Z,5.79
2019-03-04T23:40:50.899Z,5.84
2019-03-04T23:44:04.693Z,5.80
2019-03-04T23:47:18.192Z,5.90
2019-03-04T23:50:31.790Z,5.99
2019-03-04T23:53:45.659Z,6.02
2019-03-04T23:56:59.145Z,5.95
